MSC Claudia — 3FZA6 — position and weather

sailwx.info

Track history (hours):
 
Tides and Currents Weather Stations Pressure Air Temp Water Temp Dewpoint Dewpoint Depression Visibility Wind Speed Wind Dir Waves Ship Positions

MSC Claudia

Last reported at 2015-May-30 01:32 UTC. Time now 2015-May-30 02:31 UTC.
Position N 37°26' E 011°14'.

Length 292 m; draft 14.2 m.

Type: Ship (hazmat cat A). MMSI: 370606000.

Date/timePositionNaut miles runAvg speedWind from/ knotsBaromVisibWave heightAir tempDewpointWater temp
2015-May-30 01:32N 37°26' E 011°14'1511.6
2015-May-30 00:12N 37°20' E 011°32'2111.5
2015-May-29 22:24N 37°14' E 011°57'911.2
2015-May-29 21:33N 37°11' E 012°09'1111.2
2015-May-29 20:33N 37°09' E 012°22'1111.4
2015-May-29 19:33N 37°06' E 012°36'1111.1
2015-May-29 18:33N 37°02' E 012°49'1110.6
2015-May-29 17:33N 36°60' E 013°02'1110.7
2015-May-29 16:33N 36°57' E 013°15'1110.7
2015-May-29 15:33N 36°53' E 013°28'1010.3
2015-May-29 14:33N 36°51' E 013°40'1010.5
2015-May-29 13:33N 36°49' E 013°53'1110.9
2015-May-29 12:33N 36°46' E 014°06'1110.9
2015-May-29 11:33N 36°43' E 014°19'1010.3
2015-May-29 10:33N 36°40' E 014°32'1111.0
2015-May-29 09:33N 36°37' E 014°45'1111.1
2015-May-29 08:33N 36°35' E 014°59'1111.0
2015-May-29 07:33N 36°33' E 015°12'40610.4
2015-May-27 16:32N 37°04' E 023°37'1515.7
2015-May-27 15:34N 37°19' E 023°40'1616.0
2015-May-27 14:34N 37°35' E 023°43'1312.5
2015-May-27 13:33N 37°47' E 023°38'1010.3
2015-May-27 12:33N 37°57' E 023°36'1 0.5
2015-May-27 11:33N 37°57' E 023°36'0 0.0
2015-May-27 10:33N 37°57' E 023°36'0 0.0
2015-May-27 09:33N 37°57' E 023°36'0 0.0
2015-May-27 08:33N 37°57' E 023°36'0 0.0
2015-May-27 07:33N 37°57' E 023°36'0 0.0
2015-May-27 06:30N 37°57' E 023°36'0 0.0
2015-May-27 05:33N 37°57' E 023°36'0 0.0
2015-May-27 04:33N 37°57' E 023°36'0 0.0
2015-May-27 03:33N 37°57' E 023°36'0 0.0
2015-May-27 02:33N 37°57' E 023°36'0 0.0
2015-May-27 01:33N 37°57' E 023°36'0 0.0
2015-May-27 00:33N 37°57' E 023°36'0 0.0
2015-May-26 23:33N 37°57' E 023°36'0 0.0
2015-May-26 22:33N 37°57' E 023°36'0 0.0
2015-May-26 21:33N 37°57' E 023°36'0 0.0
2015-May-26 20:33N 37°57' E 023°36'0 0.0
2015-May-26 19:33N 37°57' E 023°36'1 1.5
2015-May-26 18:33N 37°56' E 023°36'3 3.4
2015-May-26 17:33N 37°53' E 023°38'7 6.9
2015-May-26 16:33N 37°47' E 023°42'1111.1
2015-May-26 15:34N 37°36' E 023°47'1311.5
2015-May-26 14:27N 37°24' E 023°52'1112.7
2015-May-26 13:33N 37°13' E 023°57'3014.8
2015-May-26 11:32N 36°45' E 024°09'3215.9
2015-May-26 09:31N 36°22' E 024°37'1617.0
2015-May-26 08:33N 36°13' E 024°53'1717.2
2015-May-26 07:33N 36°03' E 025°11'1817.6
2015-May-26 06:33N 35°53' E 025°29'3417.0
2015-May-26 04:33N 35°34' E 026°04'11117.2
2015-May-25 22:06N 34°28' E 027°53'5916.8
2015-May-25 18:33N 33°52' E 028°50'1717.4
2015-May-25 17:33N 33°42' E 029°07'1818.2
2015-May-25 16:33N 33°30' E 029°24'1817.8
2015-May-25 15:33N 33°20' E 029°42'1717.2
2015-May-25 14:33N 33°10' E 029°58'1716.8
2015-May-25 13:33N 33°01' E 030°15'1716.6
2015-May-25 12:33N 32°51' E 030°31'1616.5
2015-May-25 11:33N 32°41' E 030°47'1414.2
2015-May-25 10:33N 32°33' E 031°01'2 1.1
2015-May-25 08:24N 32°31' E 031°01'0 0.4
2015-May-25 07:30N 32°30' E 031°01'2 1.8
2015-May-25 06:33N 32°29' E 031°01'1413.7
2015-May-25 05:33N 32°20' E 031°14'1616.4
2015-May-25 04:33N 32°08' E 031°26'1615.9
2015-May-25 03:33N 31°58' E 031°41'1716.9
2015-May-25 02:33N 31°47' E 031°56'1717.1
2015-May-25 01:33N 31°35' E 032°11'2411.5
2015-May-24 23:28N 31°13' E 032°20'  
2015-May-20 23:05N 29°17' E 032°44'812.7
2015-May-20 22:26N 29°09' E 032°47'  
Track history (hours):
 
Tides and Currents Weather Stations Pressure Air Temp Water Temp Dewpoint Dewpoint Depression Visibility Wind Speed Wind Dir Waves Ship Positions

MSC Claudia

Last reported at 2015-May-30 01:32 UTC. Time now 2015-May-30 02:31 UTC.
Position N 37°26' E 011°14'.

Length 292 m; draft 14.2 m.

Type: Ship (hazmat cat A). MMSI: 370606000.

Date/timePositionNaut miles runAvg speedWind from/ knotsBaromVisibWave heightAir tempDewpointWater temp
2015-May-30 01:32N 37°26' E 011°14'1511.6
2015-May-30 00:12N 37°20' E 011°32'2111.5
2015-May-29 22:24N 37°14' E 011°57'911.2
2015-May-29 21:33N 37°11' E 012°09'1111.2
2015-May-29 20:33N 37°09' E 012°22'1111.4
2015-May-29 19:33N 37°06' E 012°36'1111.1
2015-May-29 18:33N 37°02' E 012°49'1110.6
2015-May-29 17:33N 36°60' E 013°02'1110.7
2015-May-29 16:33N 36°57' E 013°15'1110.7
2015-May-29 15:33N 36°53' E 013°28'1010.3
2015-May-29 14:33N 36°51' E 013°40'1010.5
2015-May-29 13:33N 36°49' E 013°53'1110.9
2015-May-29 12:33N 36°46' E 014°06'1110.9
2015-May-29 11:33N 36°43' E 014°19'1010.3
2015-May-29 10:33N 36°40' E 014°32'1111.0
2015-May-29 09:33N 36°37' E 014°45'1111.1
2015-May-29 08:33N 36°35' E 014°59'1111.0
2015-May-29 07:33N 36°33' E 015°12'40610.4
2015-May-27 16:32N 37°04' E 023°37'1515.7
2015-May-27 15:34N 37°19' E 023°40'1616.0
2015-May-27 14:34N 37°35' E 023°43'1312.5
2015-May-27 13:33N 37°47' E 023°38'1010.3
2015-May-27 12:33N 37°57' E 023°36'1 0.5
2015-May-27 11:33N 37°57' E 023°36'0 0.0
2015-May-27 10:33N 37°57' E 023°36'0 0.0
2015-May-27 09:33N 37°57' E 023°36'0 0.0
2015-May-27 08:33N 37°57' E 023°36'0 0.0
2015-May-27 07:33N 37°57' E 023°36'0 0.0
2015-May-27 06:30N 37°57' E 023°36'0 0.0
2015-May-27 05:33N 37°57' E 023°36'0 0.0
2015-May-27 04:33N 37°57' E 023°36'0 0.0
2015-May-27 03:33N 37°57' E 023°36'0 0.0
2015-May-27 02:33N 37°57' E 023°36'0 0.0
2015-May-27 01:33N 37°57' E 023°36'0 0.0
2015-May-27 00:33N 37°57' E 023°36'0 0.0
2015-May-26 23:33N 37°57' E 023°36'0 0.0
2015-May-26 22:33N 37°57' E 023°36'0 0.0
2015-May-26 21:33N 37°57' E 023°36'0 0.0
2015-May-26 20:33N 37°57' E 023°36'0 0.0
2015-May-26 19:33N 37°57' E 023°36'1 1.5
2015-May-26 18:33N 37°56' E 023°36'3 3.4
2015-May-26 17:33N 37°53' E 023°38'7 6.9
2015-May-26 16:33N 37°47' E 023°42'1111.1
2015-May-26 15:34N 37°36' E 023°47'1311.5
2015-May-26 14:27N 37°24' E 023°52'1112.7
2015-May-26 13:33N 37°13' E 023°57'3014.8
2015-May-26 11:32N 36°45' E 024°09'3215.9
2015-May-26 09:31N 36°22' E 024°37'1617.0
2015-May-26 08:33N 36°13' E 024°53'1717.2
2015-May-26 07:33N 36°03' E 025°11'1817.6
2015-May-26 06:33N 35°53' E 025°29'3417.0
2015-May-26 04:33N 35°34' E 026°04'11117.2
2015-May-25 22:06N 34°28' E 027°53'5916.8
2015-May-25 18:33N 33°52' E 028°50'1717.4
2015-May-25 17:33N 33°42' E 029°07'1818.2
2015-May-25 16:33N 33°30' E 029°24'1817.8
2015-May-25 15:33N 33°20' E 029°42'1717.2
2015-May-25 14:33N 33°10' E 029°58'1716.8
2015-May-25 13:33N 33°01' E 030°15'1716.6
2015-May-25 12:33N 32°51' E 030°31'1616.5
2015-May-25 11:33N 32°41' E 030°47'1414.2
2015-May-25 10:33N 32°33' E 031°01'2 1.1
2015-May-25 08:24N 32°31' E 031°01'0 0.4
2015-May-25 07:30N 32°30' E 031°01'2 1.8
2015-May-25 06:33N 32°29' E 031°01'1413.7
2015-May-25 05:33N 32°20' E 031°14'1616.4
2015-May-25 04:33N 32°08' E 031°26'1615.9
2015-May-25 03:33N 31°58' E 031°41'1716.9
2015-May-25 02:33N 31°47' E 031°56'1717.1
2015-May-25 01:33N 31°35' E 032°11'2411.5
2015-May-24 23:28N 31°13' E 032°20'  
2015-May-20 23:05N 29°17' E 032°44'812.7
2015-May-20 22:26N 29°09' E 032°47'  

Dump ship's entire track history